• Join FlightAware (Why Join?)
  • Login
  • US Flag 
08:33AM EDT


 

Airport Tracker/Info


-or-


 

Live Flight TrackerFlight Track Log ✈ CTL309 ✈ 20-Nov-2013 ✈ KOSU - KHOC

Flight Track Log - Related Links

Times and Time Zones

All times are in EST time to prevent confusion due to time zone crossing. See the CTL309 flight status page for this flight to view local times or setup timezone preferences in your user account.

Time Position Orientation Groundspeed Altitude Reporting Facility
EST Latitude Longitude Course Direction KTS MPH feet Rate Location/Type
04:44AM 40.0472 -83.1194 217° Southwest 147 169 2,100  Level Indianapolis Center
04:44AM 40.0425 -83.1242 217° Southwest 151 174 2,200 660 Climbing Indianapolis Center
04:45AM 40.0006 -83.1447 201° Southwest 158 182 2,900 360 Climbing Indianapolis Center
04:46AM 39.9586 -83.1678 203° Southwest 173 199 3,000  Climbing Indianapolis Center
04:47AM 39.9119 -83.1931 203° Southwest 183 211 3,000  Level Indianapolis Center
04:48AM 39.8656 -83.2153 200° South 179 206 3,000  Level Indianapolis Center
04:49AM 39.8150 -83.2397 200° South 179 206 3,000  Level Indianapolis Center
04:50AM 39.7683 -83.2647 202° Southwest 181 208 3,000  Level Indianapolis Center
04:52AM 39.6758 -83.3067 199° South 179 206 3,000 -60 Level Indianapolis Center
04:53AM 39.6294 -83.3317 203° Southwest 180 207 2,900 -120 Descending Indianapolis Center
04:55AM 39.5642 -83.3548 195° South  Level FlightAware Approximate
05:02AM 39.2571 -83.4881 201° Southwest  Level FlightAware Approximate
05:03AM 39.2142 -83.5096 201° Southwest  Level FlightAware Approximate
05:04AM 39.1833 -83.5333 218° Southwest  Level FlightAware Approximate
05:05AM 39.1888 -83.5388 218° Southwest  Level Estimated
05:06AM 39.1833 -83.5333 218° Southwest  Level FlightAware Approximate
05:07AM 39.1888 -83.5388 218° Southwest  Level Estimated
05:08AM 39.1833 -83.5333 218° Southwest  Level FlightAware Approximate
05:09AM 39.1888 -83.5388 218° Southwest  Level Estimated
05:10AM 39.1833 -83.5333 218° Southwest  Level FlightAware Approximate
05:11AM 39.1888 -83.5388 218° Southwest  Level Estimated
05:12AM 39.1833 -83.5333 218° Southwest  Level FlightAware Approximate
05:13AM 39.1888 -83.5388 218° Southwest  Level Estimated
05:14AM 39.1833 -83.5333 218° Southwest  Level FlightAware Approximate
05:15AM 39.1888 -83.5388 218° Southwest  Level Estimated
05:16AM 39.1833 -83.5333 218° Southwest  Level FlightAware Approximate
05:17AM 39.1888 -83.5388 218° Southwest  Level Estimated
05:18AM 39.1833 -83.5333 218° Southwest  Level FlightAware Approximate
05:19AM 39.1888 -83.5388 218° Southwest  Level Estimated
05:20AM 39.1833 -83.5333 218° Southwest  Level FlightAware Approximate
05:21AM 39.1888 -83.5388 218° Southwest  Level Estimated